sensor_id;sensor_type;location;lat;lon;timestamp;P1;durP1;ratioP1;P2;durP2;ratioP2
84784;SDS011;75017;41.576;24.704;2024-02-14T00:01:15;0.80;;;0.30;;
84784;SDS011;75017;41.576;24.704;2024-02-14T00:03:41;0.63;;;0.35;;
84784;SDS011;75017;41.576;24.704;2024-02-14T00:06:06;0.63;;;0.50;;
84784;SDS011;75017;41.576;24.704;2024-02-14T00:08:32;1.70;;;0.63;;
84784;SDS011;75017;41.576;24.704;2024-02-14T00:10:57;2.30;;;0.77;;
84784;SDS011;75017;41.576;24.704;2024-02-14T00:13:23;1.98;;;0.90;;
84784;SDS011;75017;41.576;24.704;2024-02-14T00:15:48;0.68;;;0.20;;
84784;SDS011;75017;41.576;24.704;2024-02-14T00:18:14;0.88;;;0.30;;
84784;SDS011;75017;41.576;24.704;2024-02-14T00:20:44;0.88;;;0.22;;
84784;SDS011;75017;41.576;24.704;2024-02-14T00:23:10;1.38;;;0.47;;
84784;SDS011;75017;41.576;24.704;2024-02-14T00:25:36;1.15;;;0.40;;
84784;SDS011;75017;41.576;24.704;2024-02-14T00:28:02;1.05;;;0.40;;
84784;SDS011;75017;41.576;24.704;2024-02-14T00:30:28;0.82;;;0.40;;
84784;SDS011;75017;41.576;24.704;2024-02-14T00:32:54;0.47;;;0.20;;
84784;SDS011;75017;41.576;24.704;2024-02-14T00:35:21;0.77;;;0.40;;
84784;SDS011;75017;41.576;24.704;2024-02-14T00:37:47;0.10;;;0.10;;
84784;SDS011;75017;41.576;24.704;2024-02-14T00:40:12;1.50;;;0.47;;
84784;SDS011;75017;41.576;24.704;2024-02-14T00:42:38;1.75;;;0.60;;
84784;SDS011;75017;41.576;24.704;2024-02-14T00:45:03;1.02;;;0.22;;
84784;SDS011;75017;41.576;24.704;2024-02-14T00:47:32;0.45;;;0.20;;
84784;SDS011;75017;41.576;24.704;2024-02-14T00:49:58;0.85;;;0.10;;
84784;SDS011;75017;41.576;24.704;2024-02-14T00:52:23;0.40;;;0.30;;
84784;SDS011;75017;41.576;24.704;2024-02-14T00:54:49;1.58;;;0.50;;
84784;SDS011;75017;41.576;24.704;2024-02-14T00:57:14;1.83;;;0.77;;
84784;SDS011;75017;41.576;24.704;2024-02-14T00:59:40;2.35;;;0.70;;
84784;SDS011;75017;41.576;24.704;2024-02-14T01:02:06;2.22;;;0.63;;
84784;SDS011;75017;41.576;24.704;2024-02-14T01:04:32;1.50;;;0.43;;
84784;SDS011;75017;41.576;24.704;2024-02-14T01:06:57;0.95;;;0.38;;
84784;SDS011;75017;41.576;24.704;2024-02-14T01:09:23;0.88;;;0.60;;
84784;SDS011;75017;41.576;24.704;2024-02-14T01:11:49;1.00;;;0.40;;
84784;SDS011;75017;41.576;24.704;2024-02-14T01:14:15;2.67;;;1.13;;
84784;SDS011;75017;41.576;24.704;2024-02-14T01:16:45;2.30;;;1.38;;
84784;SDS011;75017;41.576;24.704;2024-02-14T01:19:11;0.95;;;0.45;;
84784;SDS011;75017;41.576;24.704;2024-02-14T01:21:37;1.65;;;0.65;;
84784;SDS011;75017;41.576;24.704;2024-02-14T01:24:04;4.90;;;1.75;;
84784;SDS011;75017;41.576;24.704;2024-02-14T01:26:33;4.43;;;2.53;;
84784;SDS011;75017;41.576;24.704;2024-02-14T01:28:59;4.72;;;2.15;;
84784;SDS011;75017;41.576;24.704;2024-02-14T01:31:27;4.68;;;2.22;;
84784;SDS011;75017;41.576;24.704;2024-02-14T01:33:53;7.25;;;3.40;;
84784;SDS011;75017;41.576;24.704;2024-02-14T01:36:18;5.32;;;2.53;;
84784;SDS011;75017;41.576;24.704;2024-02-14T01:38:44;3.75;;;1.75;;
84784;SDS011;75017;41.576;24.704;2024-02-14T01:41:10;3.80;;;1.52;;
84784;SDS011;75017;41.576;24.704;2024-02-14T01:43:35;3.50;;;1.40;;
84784;SDS011;75017;41.576;24.704;2024-02-14T01:46:05;2.45;;;1.13;;
84784;SDS011;75017;41.576;24.704;2024-02-14T01:48:33;1.98;;;0.90;;
84784;SDS011;75017;41.576;24.704;2024-02-14T01:50:59;1.73;;;0.98;;
84784;SDS011;75017;41.576;24.704;2024-02-14T01:53:26;3.20;;;0.80;;
84784;SDS011;75017;41.576;24.704;2024-02-14T01:58:20;2.28;;;0.98;;
84784;SDS011;75017;41.576;24.704;2024-02-14T02:00:46;3.63;;;1.25;;
84784;SDS011;75017;41.576;24.704;2024-02-14T02:03:12;2.58;;;1.23;;
84784;SDS011;75017;41.576;24.704;2024-02-14T02:05:38;3.15;;;1.05;;
84784;SDS011;75017;41.576;24.704;2024-02-14T02:08:04;1.63;;;0.73;;
84784;SDS011;75017;41.576;24.704;2024-02-14T02:10:32;1.13;;;0.30;;
84784;SDS011;75017;41.576;24.704;2024-02-14T02:12:58;0.65;;;0.47;;
84784;SDS011;75017;41.576;24.704;2024-02-14T02:15:25;0.10;;;0.10;;
84784;SDS011;75017;41.576;24.704;2024-02-14T02:17:51;0.10;;;0.10;;
84784;SDS011;75017;41.576;24.704;2024-02-14T02:20:18;0.93;;;0.10;;
84784;SDS011;75017;41.576;24.704;2024-02-14T02:22:45;0.13;;;0.13;;
84784;SDS011;75017;41.576;24.704;2024-02-14T02:25:14;0.00;;;0.00;;
84784;SDS011;75017;41.576;24.704;2024-02-14T02:27:40;0.10;;;0.10;;
84784;SDS011;75017;41.576;24.704;2024-02-14T02:30:06;7.45;;;1.65;;
84784;SDS011;75017;41.576;24.704;2024-02-14T02:32:33;0.28;;;0.20;;
84784;SDS011;75017;41.576;24.704;2024-02-14T02:34:59;0.47;;;0.20;;
84784;SDS011;75017;41.576;24.704;2024-02-14T02:37:27;0.28;;;0.15;;
84784;SDS011;75017;41.576;24.704;2024-02-14T02:39:55;0.45;;;0.10;;
84784;SDS011;75017;41.576;24.704;2024-02-14T02:42:21;0.65;;;0.30;;
84784;SDS011;75017;41.576;24.704;2024-02-14T02:44:49;0.93;;;0.20;;
84784;SDS011;75017;41.576;24.704;2024-02-14T02:47:17;0.52;;;0.20;;
84784;SDS011;75017;41.576;24.704;2024-02-14T02:49:43;0.63;;;0.40;;
84784;SDS011;75017;41.576;24.704;2024-02-14T02:52:12;0.52;;;0.10;;
84784;SDS011;75017;41.576;24.704;2024-02-14T02:57:09;10.13;;;5.40;;
84784;SDS011;75017;41.576;24.704;2024-02-14T02:59:37;1.88;;;0.90;;
84784;SDS011;75017;41.576;24.704;2024-02-14T03:02:03;0.40;;;0.10;;
84784;SDS011;75017;41.576;24.704;2024-02-14T03:04:29;0.30;;;0.20;;
84784;SDS011;75017;41.576;24.704;2024-02-14T03:06:56;1.35;;;0.30;;
84784;SDS011;75017;41.576;24.704;2024-02-14T03:09:22;0.10;;;0.10;;
84784;SDS011;75017;41.576;24.704;2024-02-14T03:11:48;0.65;;;0.30;;
84784;SDS011;75017;41.576;24.704;2024-02-14T03:14:13;0.32;;;0.17;;
84784;SDS011;75017;41.576;24.704;2024-02-14T03:16:39;1.13;;;0.10;;
84784;SDS011;75017;41.576;24.704;2024-02-14T03:19:05;0.70;;;0.40;;
84784;SDS011;75017;41.576;24.704;2024-02-14T03:21:31;0.73;;;0.35;;
84784;SDS011;75017;41.576;24.704;2024-02-14T03:24:03;0.52;;;0.30;;
84784;SDS011;75017;41.576;24.704;2024-02-14T03:26:30;0.68;;;0.30;;
84784;SDS011;75017;41.576;24.704;2024-02-14T03:28:59;0.90;;;0.40;;
84784;SDS011;75017;41.576;24.704;2024-02-14T03:31:25;0.60;;;0.20;;
84784;SDS011;75017;41.576;24.704;2024-02-14T03:33:51;0.38;;;0.28;;
84784;SDS011;75017;41.576;24.704;2024-02-14T03:36:17;0.75;;;0.40;;
84784;SDS011;75017;41.576;24.704;2024-02-14T03:38:43;0.50;;;0.20;;
84784;SDS011;75017;41.576;24.704;2024-02-14T03:41:11;0.30;;;0.20;;
84784;SDS011;75017;41.576;24.704;2024-02-14T03:43:38;0.50;;;0.17;;
84784;SDS011;75017;41.576;24.704;2024-02-14T03:46:04;0.57;;;0.13;;
84784;SDS011;75017;41.576;24.704;2024-02-14T03:48:30;0.10;;;0.10;;
84784;SDS011;75017;41.576;24.704;2024-02-14T03:50:56;1.10;;;0.98;;
84784;SDS011;75017;41.576;24.704;2024-02-14T03:53:22;0.25;;;0.17;;
84784;SDS011;75017;41.576;24.704;2024-02-14T03:55:48;1.02;;;0.40;;
84784;SDS011;75017;41.576;24.704;2024-02-14T03:58:14;1.20;;;0.35;;
84784;SDS011;75017;41.576;24.704;2024-02-14T04:00:47;1.00;;;0.45;;
84784;SDS011;75017;41.576;24.704;2024-02-14T04:03:15;1.05;;;0.63;;
84784;SDS011;75017;41.576;24.704;2024-02-14T04:05:41;0.75;;;0.22;;
84784;SDS011;75017;41.576;24.704;2024-02-14T04:08:07;0.95;;;0.40;;
84784;SDS011;75017;41.576;24.704;2024-02-14T04:10:35;0.28;;;0.20;;
84784;SDS011;75017;41.576;24.704;2024-02-14T04:13:02;1.13;;;0.70;;
84784;SDS011;75017;41.576;24.704;2024-02-14T04:15:29;2.00;;;0.50;;
84784;SDS011;75017;41.576;24.704;2024-02-14T04:17:54;1.48;;;0.60;;
84784;SDS011;75017;41.576;24.704;2024-02-14T04:20:20;1.20;;;0.80;;
84784;SDS011;75017;41.576;24.704;2024-02-14T04:22:45;1.83;;;0.80;;
84784;SDS011;75017;41.576;24.704;2024-02-14T04:25:11;2.70;;;0.65;;
84784;SDS011;75017;41.576;24.704;2024-02-14T04:27:37;1.23;;;0.35;;
84784;SDS011;75017;41.576;24.704;2024-02-14T04:30:03;1.70;;;0.60;;
84784;SDS011;75017;41.576;24.704;2024-02-14T04:32:29;0.80;;;0.30;;
84784;SDS011;75017;41.576;24.704;2024-02-14T04:34:55;1.88;;;1.10;;
84784;SDS011;75017;41.576;24.704;2024-02-14T04:37:21;2.05;;;1.15;;
84784;SDS011;75017;41.576;24.704;2024-02-14T04:39:47;0.43;;;0.30;;
84784;SDS011;75017;41.576;24.704;2024-02-14T04:42:12;1.48;;;0.90;;
84784;SDS011;75017;41.576;24.704;2024-02-14T04:44:38;2.63;;;0.70;;
84784;SDS011;75017;41.576;24.704;2024-02-14T04:47:04;7.20;;;3.70;;
84784;SDS011;75017;41.576;24.704;2024-02-14T04:49:30;5.53;;;3.80;;
84784;SDS011;75017;41.576;24.704;2024-02-14T04:51:56;4.10;;;3.10;;
84784;SDS011;75017;41.576;24.704;2024-02-14T04:54:22;4.65;;;1.90;;
84784;SDS011;75017;41.576;24.704;2024-02-14T04:56:47;2.78;;;1.13;;
84784;SDS011;75017;41.576;24.704;2024-02-14T04:59:13;2.35;;;0.82;;
84784;SDS011;75017;41.576;24.704;2024-02-14T05:01:39;1.85;;;1.42;;
84784;SDS011;75017;41.576;24.704;2024-02-14T05:04:05;2.30;;;1.10;;
84784;SDS011;75017;41.576;24.704;2024-02-14T05:06:32;2.63;;;1.20;;
84784;SDS011;75017;41.576;24.704;2024-02-14T05:08:58;2.22;;;0.85;;
84784;SDS011;75017;41.576;24.704;2024-02-14T05:11:23;1.67;;;1.10;;
84784;SDS011;75017;41.576;24.704;2024-02-14T05:13:49;1.17;;;0.85;;
84784;SDS011;75017;41.576;24.704;2024-02-14T05:16:17;1.73;;;0.90;;
84784;SDS011;75017;41.576;24.704;2024-02-14T05:18:43;2.70;;;1.70;;
84784;SDS011;75017;41.576;24.704;2024-02-14T05:21:09;5.35;;;2.40;;
84784;SDS011;75017;41.576;24.704;2024-02-14T05:23:34;2.05;;;0.98;;
84784;SDS011;75017;41.576;24.704;2024-02-14T05:26:03;5.50;;;2.40;;
84784;SDS011;75017;41.576;24.704;2024-02-14T05:28:29;9.48;;;4.00;;
84784;SDS011;75017;41.576;24.704;2024-02-14T05:30:56;3.55;;;2.55;;
84784;SDS011;75017;41.576;24.704;2024-02-14T05:33:22;5.47;;;1.95;;
84784;SDS011;75017;41.576;24.704;2024-02-14T05:35:48;2.60;;;1.40;;
84784;SDS011;75017;41.576;24.704;2024-02-14T05:38:14;5.20;;;2.00;;
84784;SDS011;75017;41.576;24.704;2024-02-14T05:40:40;3.50;;;1.63;;
84784;SDS011;75017;41.576;24.704;2024-02-14T05:43:08;1.70;;;1.27;;
84784;SDS011;75017;41.576;24.704;2024-02-14T05:45:33;4.65;;;1.45;;
84784;SDS011;75017;41.576;24.704;2024-02-14T05:47:59;4.03;;;1.45;;
84784;SDS011;75017;41.576;24.704;2024-02-14T05:50:24;1.55;;;1.10;;
84784;SDS011;75017;41.576;24.704;2024-02-14T05:52:49;3.17;;;1.50;;
84784;SDS011;75017;41.576;24.704;2024-02-14T05:55:15;2.35;;;1.45;;
84784;SDS011;75017;41.576;24.704;2024-02-14T05:57:40;2.08;;;0.65;;
84784;SDS011;75017;41.576;24.704;2024-02-14T06:00:06;4.28;;;2.03;;
84784;SDS011;75017;41.576;24.704;2024-02-14T06:02:34;1.35;;;0.73;;
84784;SDS011;75017;41.576;24.704;2024-02-14T06:05:00;1.42;;;1.00;;
84784;SDS011;75017;41.576;24.704;2024-02-14T06:07:26;4.82;;;1.00;;
84784;SDS011;75017;41.576;24.704;2024-02-14T06:09:51;1.45;;;0.65;;
84784;SDS011;75017;41.576;24.704;2024-02-14T06:12:17;5.82;;;2.00;;
84784;SDS011;75017;41.576;24.704;2024-02-14T06:14:42;3.30;;;1.83;;
84784;SDS011;75017;41.576;24.704;2024-02-14T06:17:08;5.25;;;2.90;;
84784;SDS011;75017;41.576;24.704;2024-02-14T06:19:33;2.80;;;1.65;;
84784;SDS011;75017;41.576;24.704;2024-02-14T06:22:00;1.98;;;1.15;;
84784;SDS011;75017;41.576;24.704;2024-02-14T06:24:25;1.90;;;1.23;;
84784;SDS011;75017;41.576;24.704;2024-02-14T06:26:51;2.42;;;1.60;;
84784;SDS011;75017;41.576;24.704;2024-02-14T06:29:16;4.80;;;1.90;;
84784;SDS011;75017;41.576;24.704;2024-02-14T06:31:42;5.38;;;2.72;;
84784;SDS011;75017;41.576;24.704;2024-02-14T06:34:07;3.72;;;2.13;;
84784;SDS011;75017;41.576;24.704;2024-02-14T06:36:33;8.50;;;2.90;;
84784;SDS011;75017;41.576;24.704;2024-02-14T06:38:59;6.32;;;2.42;;
84784;SDS011;75017;41.576;24.704;2024-02-14T06:41:24;7.15;;;3.13;;
84784;SDS011;75017;41.576;24.704;2024-02-14T06:43:50;4.47;;;3.45;;
84784;SDS011;75017;41.576;24.704;2024-02-14T06:46:15;4.30;;;1.85;;
84784;SDS011;75017;41.576;24.704;2024-02-14T06:48:41;4.30;;;2.58;;
84784;SDS011;75017;41.576;24.704;2024-02-14T06:51:07;4.60;;;2.35;;
84784;SDS011;75017;41.576;24.704;2024-02-14T06:53:33;6.93;;;3.15;;
84784;SDS011;75017;41.576;24.704;2024-02-14T06:55:58;7.60;;;3.65;;
84784;SDS011;75017;41.576;24.704;2024-02-14T06:58:25;6.45;;;1.90;;
84784;SDS011;75017;41.576;24.704;2024-02-14T07:00:51;6.35;;;2.97;;
84784;SDS011;75017;41.576;24.704;2024-02-14T07:03:16;6.88;;;2.22;;
84784;SDS011;75017;41.576;24.704;2024-02-14T07:05:42;2.97;;;1.55;;
84784;SDS011;75017;41.576;24.704;2024-02-14T07:08:07;6.45;;;3.70;;
84784;SDS011;75017;41.576;24.704;2024-02-14T07:10:33;7.00;;;3.08;;
84784;SDS011;75017;41.576;24.704;2024-02-14T07:12:58;4.60;;;2.40;;
84784;SDS011;75017;41.576;24.704;2024-02-14T07:15:24;2.65;;;1.65;;
84784;SDS011;75017;41.576;24.704;2024-02-14T07:17:53;4.22;;;1.80;;
84784;SDS011;75017;41.576;24.704;2024-02-14T07:20:20;4.18;;;2.00;;
84784;SDS011;75017;41.576;24.704;2024-02-14T07:22:45;5.72;;;1.85;;
84784;SDS011;75017;41.576;24.704;2024-02-14T07:25:14;6.97;;;3.22;;
84784;SDS011;75017;41.576;24.704;2024-02-14T07:27:39;3.53;;;1.50;;
84784;SDS011;75017;41.576;24.704;2024-02-14T07:30:05;5.43;;;1.90;;
84784;SDS011;75017;41.576;24.704;2024-02-14T07:32:31;3.90;;;1.35;;
84784;SDS011;75017;41.576;24.704;2024-02-14T07:34:56;4.65;;;1.52;;
84784;SDS011;75017;41.576;24.704;2024-02-14T07:37:22;3.53;;;1.20;;
84784;SDS011;75017;41.576;24.704;2024-02-14T07:39:47;2.55;;;1.10;;
84784;SDS011;75017;41.576;24.704;2024-02-14T07:42:13;2.53;;;1.20;;
84784;SDS011;75017;41.576;24.704;2024-02-14T07:44:39;2.58;;;1.10;;
84784;SDS011;75017;41.576;24.704;2024-02-14T07:47:04;1.60;;;0.93;;
84784;SDS011;75017;41.576;24.704;2024-02-14T07:49:30;4.13;;;2.15;;
84784;SDS011;75017;41.576;24.704;2024-02-14T07:51:55;8.95;;;2.25;;
84784;SDS011;75017;41.576;24.704;2024-02-14T07:54:22;1.60;;;1.02;;
84784;SDS011;75017;41.576;24.704;2024-02-14T07:56:48;2.63;;;1.23;;
84784;SDS011;75017;41.576;24.704;2024-02-14T07:59:13;4.50;;;1.55;;
84784;SDS011;75017;41.576;24.704;2024-02-14T08:01:40;6.03;;;2.47;;
84784;SDS011;75017;41.576;24.704;2024-02-14T08:04:08;4.88;;;2.70;;
84784;SDS011;75017;41.576;24.704;2024-02-14T08:06:33;4.55;;;2.45;;
84784;SDS011;75017;41.576;24.704;2024-02-14T08:09:00;4.47;;;2.22;;
84784;SDS011;75017;41.576;24.704;2024-02-14T08:13:54;5.00;;;2.22;;
84784;SDS011;75017;41.576;24.704;2024-02-14T08:16:19;5.43;;;2.40;;
84784;SDS011;75017;41.576;24.704;2024-02-14T08:18:45;2.72;;;1.50;;
84784;SDS011;75017;41.576;24.704;2024-02-14T08:21:10;5.55;;;2.28;;
84784;SDS011;75017;41.576;24.704;2024-02-14T08:23:37;6.65;;;2.22;;
84784;SDS011;75017;41.576;24.704;2024-02-14T08:26:05;3.28;;;1.48;;
84784;SDS011;75017;41.576;24.704;2024-02-14T08:28:36;7.13;;;1.92;;
84784;SDS011;75017;41.576;24.704;2024-02-14T08:31:02;3.35;;;1.48;;
84784;SDS011;75017;41.576;24.704;2024-02-14T08:33:27;6.00;;;2.47;;
84784;SDS011;75017;41.576;24.704;2024-02-14T08:35:53;2.67;;;1.27;;
84784;SDS011;75017;41.576;24.704;2024-02-14T08:38:22;3.53;;;1.67;;
84784;SDS011;75017;41.576;24.704;2024-02-14T08:40:48;3.97;;;1.73;;
84784;SDS011;75017;41.576;24.704;2024-02-14T08:43:13;4.90;;;2.25;;
84784;SDS011;75017;41.576;24.704;2024-02-14T08:45:39;6.20;;;2.97;;
84784;SDS011;75017;41.576;24.704;2024-02-14T08:48:05;1.45;;;0.82;;
84784;SDS011;75017;41.576;24.704;2024-02-14T08:50:32;8.10;;;2.28;;
84784;SDS011;75017;41.576;24.704;2024-02-14T08:52:57;5.82;;;2.80;;
84784;SDS011;75017;41.576;24.704;2024-02-14T08:55:23;4.93;;;2.95;;
84784;SDS011;75017;41.576;24.704;2024-02-14T08:57:48;5.15;;;2.83;;
84784;SDS011;75017;41.576;24.704;2024-02-14T09:00:14;5.25;;;2.35;;
84784;SDS011;75017;41.576;24.704;2024-02-14T09:02:40;4.28;;;1.95;;
84784;SDS011;75017;41.576;24.704;2024-02-14T09:05:06;5.90;;;2.15;;
84784;SDS011;75017;41.576;24.704;2024-02-14T09:07:32;3.47;;;2.13;;
84784;SDS011;75017;41.576;24.704;2024-02-14T09:09:59;3.40;;;1.48;;
84784;SDS011;75017;41.576;24.704;2024-02-14T09:12:24;6.55;;;3.45;;
84784;SDS011;75017;41.576;24.704;2024-02-14T09:14:50;9.02;;;2.15;;
84784;SDS011;75017;41.576;24.704;2024-02-14T09:17:16;3.13;;;1.58;;
84784;SDS011;75017;41.576;24.704;2024-02-14T09:19:41;2.35;;;1.40;;
84784;SDS011;75017;41.576;24.704;2024-02-14T09:22:07;9.75;;;3.22;;
84784;SDS011;75017;41.576;24.704;2024-02-14T09:24:32;8.63;;;2.30;;
84784;SDS011;75017;41.576;24.704;2024-02-14T09:26:58;4.72;;;2.20;;
84784;SDS011;75017;41.576;24.704;2024-02-14T09:29:24;4.07;;;1.98;;
84784;SDS011;75017;41.576;24.704;2024-02-14T09:31:50;6.00;;;2.60;;
84784;SDS011;75017;41.576;24.704;2024-02-14T09:34:16;3.20;;;2.20;;
84784;SDS011;75017;41.576;24.704;2024-02-14T09:36:44;7.70;;;2.00;;
84784;SDS011;75017;41.576;24.704;2024-02-14T09:39:11;5.22;;;2.33;;
84784;SDS011;75017;41.576;24.704;2024-02-14T09:41:37;4.03;;;1.17;;
84784;SDS011;75017;41.576;24.704;2024-02-14T09:44:05;4.20;;;1.20;;
84784;SDS011;75017;41.576;24.704;2024-02-14T09:46:30;4.97;;;1.90;;
84784;SDS011;75017;41.576;24.704;2024-02-14T09:48:56;6.90;;;2.33;;
84784;SDS011;75017;41.576;24.704;2024-02-14T09:51:24;3.95;;;1.67;;
84784;SDS011;75017;41.576;24.704;2024-02-14T09:53:50;5.47;;;2.10;;
84784;SDS011;75017;41.576;24.704;2024-02-14T09:56:19;4.15;;;1.67;;
84784;SDS011;75017;41.576;24.704;2024-02-14T09:58:48;4.43;;;1.70;;
84784;SDS011;75017;41.576;24.704;2024-02-14T10:01:25;6.70;;;1.73;;
84784;SDS011;75017;41.576;24.704;2024-02-14T10:03:52;8.63;;;3.05;;
84784;SDS011;75017;41.576;24.704;2024-02-14T10:06:20;6.38;;;2.78;;
84784;SDS011;75017;41.576;24.704;2024-02-14T10:08:46;7.03;;;2.28;;
84784;SDS011;75017;41.576;24.704;2024-02-14T10:11:13;9.60;;;2.15;;
84784;SDS011;75017;41.576;24.704;2024-02-14T10:13:45;3.72;;;1.85;;
84784;SDS011;75017;41.576;24.704;2024-02-14T10:16:13;2.38;;;1.27;;
84784;SDS011;75017;41.576;24.704;2024-02-14T10:18:43;2.75;;;1.33;;
84784;SDS011;75017;41.576;24.704;2024-02-14T10:21:14;4.93;;;1.73;;
84784;SDS011;75017;41.576;24.704;2024-02-14T10:23:42;6.40;;;1.00;;
84784;SDS011;75017;41.576;24.704;2024-02-14T10:26:08;5.47;;;1.83;;
84784;SDS011;75017;41.576;24.704;2024-02-14T10:28:34;3.67;;;2.28;;
84784;SDS011;75017;41.576;24.704;2024-02-14T10:30:59;4.90;;;1.38;;
84784;SDS011;75017;41.576;24.704;2024-02-14T10:33:27;2.63;;;1.25;;
84784;SDS011;75017;41.576;24.704;2024-02-14T10:35:54;5.50;;;1.75;;
84784;SDS011;75017;41.576;24.704;2024-02-14T10:38:22;3.67;;;1.90;;
84784;SDS011;75017;41.576;24.704;2024-02-14T10:40:49;3.58;;;1.88;;
84784;SDS011;75017;41.576;24.704;2024-02-14T10:43:17;4.07;;;2.10;;
84784;SDS011;75017;41.576;24.704;2024-02-14T10:45:43;2.95;;;1.35;;
84784;SDS011;75017;41.576;24.704;2024-02-14T10:48:11;2.53;;;0.75;;
84784;SDS011;75017;41.576;24.704;2024-02-14T10:50:38;2.92;;;0.80;;
84784;SDS011;75017;41.576;24.704;2024-02-14T10:53:06;6.82;;;3.20;;
84784;SDS011;75017;41.576;24.704;2024-02-14T10:55:38;4.10;;;2.30;;
84784;SDS011;75017;41.576;24.704;2024-02-14T10:58:07;4.15;;;2.33;;
84784;SDS011;75017;41.576;24.704;2024-02-14T11:00:33;5.22;;;2.92;;
84784;SDS011;75017;41.576;24.704;2024-02-14T11:02:59;5.30;;;2.53;;
84784;SDS011;75017;41.576;24.704;2024-02-14T11:05:25;3.60;;;1.75;;
84784;SDS011;75017;41.576;24.704;2024-02-14T11:07:51;4.18;;;0.95;;
84784;SDS011;75017;41.576;24.704;2024-02-14T11:12:46;1.70;;;0.88;;
84784;SDS011;75017;41.576;24.704;2024-02-14T11:15:22;6.05;;;2.30;;
84784;SDS011;75017;41.576;24.704;2024-02-14T11:17:50;3.08;;;1.80;;
84784;SDS011;75017;41.576;24.704;2024-02-14T11:20:18;8.25;;;2.35;;
84784;SDS011;75017;41.576;24.704;2024-02-14T11:25:37;4.97;;;2.45;;
84784;SDS011;75017;41.576;24.704;2024-02-14T11:28:12;3.70;;;1.52;;
84784;SDS011;75017;41.576;24.704;2024-02-14T11:30:39;4.35;;;2.80;;
84784;SDS011;75017;41.576;24.704;2024-02-14T11:33:16;4.05;;;2.13;;
84784;SDS011;75017;41.576;24.704;2024-02-14T11:35:45;2.97;;;1.58;;
84784;SDS011;75017;41.576;24.704;2024-02-14T11:38:13;7.10;;;3.03;;
84784;SDS011;75017;41.576;24.704;2024-02-14T11:40:39;5.28;;;1.30;;
84784;SDS011;75017;41.576;24.704;2024-02-14T11:43:10;6.40;;;2.78;;
84784;SDS011;75017;41.576;24.704;2024-02-14T11:45:39;9.65;;;3.30;;
84784;SDS011;75017;41.576;24.704;2024-02-14T11:48:08;5.88;;;2.85;;
84784;SDS011;75017;41.576;24.704;2024-02-14T11:50:40;4.40;;;2.05;;
84784;SDS011;75017;41.576;24.704;2024-02-14T11:53:08;7.85;;;2.40;;
84784;SDS011;75017;41.576;24.704;2024-02-14T11:55:36;10.35;;;4.20;;
84784;SDS011;75017;41.576;24.704;2024-02-14T11:58:12;9.82;;;3.45;;
84784;SDS011;75017;41.576;24.704;2024-02-14T12:03:09;6.13;;;3.78;;
84784;SDS011;75017;41.576;24.704;2024-02-14T12:05:41;2.35;;;1.42;;
84784;SDS011;75017;41.576;24.704;2024-02-14T12:08:09;2.88;;;1.45;;
84784;SDS011;75017;41.576;24.704;2024-02-14T12:10:35;6.38;;;2.70;;
84784;SDS011;75017;41.576;24.704;2024-02-14T12:13:11;2.72;;;1.70;;
84784;SDS011;75017;41.576;24.704;2024-02-14T12:18:07;4.80;;;1.77;;
84784;SDS011;75017;41.576;24.704;2024-02-14T12:20:34;3.42;;;1.75;;
84784;SDS011;75017;41.576;24.704;2024-02-14T12:23:01;5.88;;;2.55;;
84784;SDS011;75017;41.576;24.704;2024-02-14T12:25:27;3.72;;;2.60;;
84784;SDS011;75017;41.576;24.704;2024-02-14T12:27:52;2.60;;;1.17;;
84784;SDS011;75017;41.576;24.704;2024-02-14T12:30:18;7.53;;;2.75;;
84784;SDS011;75017;41.576;24.704;2024-02-14T12:32:45;8.82;;;3.80;;
84784;SDS011;75017;41.576;24.704;2024-02-14T12:35:11;11.15;;;3.92;;
84784;SDS011;75017;41.576;24.704;2024-02-14T12:37:36;7.85;;;4.18;;
84784;SDS011;75017;41.576;24.704;2024-02-14T12:40:03;5.45;;;2.25;;
84784;SDS011;75017;41.576;24.704;2024-02-14T12:42:30;4.18;;;2.30;;
84784;SDS011;75017;41.576;24.704;2024-02-14T12:44:57;4.25;;;2.00;;
84784;SDS011;75017;41.576;24.704;2024-02-14T12:47:22;8.50;;;2.00;;
84784;SDS011;75017;41.576;24.704;2024-02-14T12:49:49;4.13;;;2.00;;
84784;SDS011;75017;41.576;24.704;2024-02-14T12:52:14;10.80;;;3.20;;
84784;SDS011;75017;41.576;24.704;2024-02-14T12:54:40;8.68;;;4.28;;
84784;SDS011;75017;41.576;24.704;2024-02-14T12:57:06;5.15;;;2.40;;
84784;SDS011;75017;41.576;24.704;2024-02-14T12:59:31;8.75;;;3.88;;
84784;SDS011;75017;41.576;24.704;2024-02-14T13:01:57;5.50;;;2.15;;
84784;SDS011;75017;41.576;24.704;2024-02-14T13:04:23;2.42;;;1.50;;
84784;SDS011;75017;41.576;24.704;2024-02-14T13:06:48;10.65;;;3.30;;
84784;SDS011;75017;41.576;24.704;2024-02-14T13:09:14;8.98;;;5.70;;
84784;SDS011;75017;41.576;24.704;2024-02-14T13:11:39;7.13;;;2.47;;
84784;SDS011;75017;41.576;24.704;2024-02-14T13:14:07;7.93;;;3.40;;
84784;SDS011;75017;41.576;24.704;2024-02-14T13:16:34;7.40;;;3.58;;
84784;SDS011;75017;41.576;24.704;2024-02-14T13:19:01;7.90;;;3.20;;
84784;SDS011;75017;41.576;24.704;2024-02-14T13:21:27;3.72;;;1.80;;
84784;SDS011;75017;41.576;24.704;2024-02-14T13:23:53;5.28;;;2.35;;
84784;SDS011;75017;41.576;24.704;2024-02-14T13:26:19;3.67;;;1.95;;
84784;SDS011;75017;41.576;24.704;2024-02-14T13:28:44;5.35;;;2.00;;
84784;SDS011;75017;41.576;24.704;2024-02-14T13:31:10;1.90;;;1.33;;
84784;SDS011;75017;41.576;24.704;2024-02-14T13:33:37;4.90;;;2.55;;
84784;SDS011;75017;41.576;24.704;2024-02-14T13:36:02;4.82;;;2.60;;
84784;SDS011;75017;41.576;24.704;2024-02-14T13:38:28;4.65;;;2.42;;
84784;SDS011;75017;41.576;24.704;2024-02-14T13:40:54;5.13;;;2.42;;
84784;SDS011;75017;41.576;24.704;2024-02-14T13:43:19;7.55;;;3.50;;
84784;SDS011;75017;41.576;24.704;2024-02-14T13:45:45;3.58;;;2.17;;
84784;SDS011;75017;41.576;24.704;2024-02-14T13:48:13;8.45;;;4.00;;
84784;SDS011;75017;41.576;24.704;2024-02-14T13:50:38;4.72;;;2.63;;
84784;SDS011;75017;41.576;24.704;2024-02-14T13:53:04;6.15;;;2.67;;
84784;SDS011;75017;41.576;24.704;2024-02-14T13:55:31;3.80;;;1.50;;
84784;SDS011;75017;41.576;24.704;2024-02-14T13:57:56;5.55;;;1.85;;
84784;SDS011;75017;41.576;24.704;2024-02-14T14:00:22;4.00;;;2.42;;
84784;SDS011;75017;41.576;24.704;2024-02-14T14:02:48;5.80;;;2.83;;
84784;SDS011;75017;41.576;24.704;2024-02-14T14:05:13;4.68;;;2.13;;
84784;SDS011;75017;41.576;24.704;2024-02-14T14:07:39;9.27;;;4.68;;
84784;SDS011;75017;41.576;24.704;2024-02-14T14:10:05;11.13;;;3.60;;
84784;SDS011;75017;41.576;24.704;2024-02-14T14:12:32;16.70;;;7.18;;
84784;SDS011;75017;41.576;24.704;2024-02-14T14:14:58;14.48;;;6.95;;
84784;SDS011;75017;41.576;24.704;2024-02-14T14:17:23;11.43;;;5.88;;
84784;SDS011;75017;41.576;24.704;2024-02-14T14:19:49;10.40;;;3.20;;
84784;SDS011;75017;41.576;24.704;2024-02-14T14:22:15;10.70;;;5.90;;
84784;SDS011;75017;41.576;24.704;2024-02-14T14:24:41;9.85;;;4.78;;
84784;SDS011;75017;41.576;24.704;2024-02-14T14:27:07;13.13;;;5.50;;
84784;SDS011;75017;41.576;24.704;2024-02-14T14:29:34;7.70;;;2.83;;
84784;SDS011;75017;41.576;24.704;2024-02-14T14:32:00;14.27;;;6.80;;
84784;SDS011;75017;41.576;24.704;2024-02-14T14:34:26;6.72;;;3.83;;
84784;SDS011;75017;41.576;24.704;2024-02-14T14:36:55;7.38;;;2.78;;
84784;SDS011;75017;41.576;24.704;2024-02-14T14:39:20;6.47;;;3.50;;
84784;SDS011;75017;41.576;24.704;2024-02-14T14:41:46;9.40;;;3.95;;
84784;SDS011;75017;41.576;24.704;2024-02-14T14:44:11;6.22;;;5.43;;
84784;SDS011;75017;41.576;24.704;2024-02-14T14:46:37;6.25;;;3.40;;